Fort Monroe, Virginia
Current Conditions -  °F | °C
As of 3:59 PM on Monday 24 Nov 2014 (Local Time) from KNGU Reporting Station
Overcast Overcast  
Wind Chill: 75°   Ceiling: 7500
Heat Index: 75°   Visibility: 10mi
Dew Point: 63°   Wind: 16mph
Humidity: 66%   Direction: 200°SSW
Pressure: 29.78"   Gusts: 23mph
Location:  37.01°N, 76.31°W
Report Text: KNGU 242059Z 20014G20KT 10SM FEW030 BKN075 OVC095 24/17 A2978 RMK AO2 PK WND 21027/2028 SLP083 T02390172 53001
Loading
Personal Weather Stations






























Interactive Weather Map New forecast layout! Learn more

10-Day Weather Forecast

Advertisements
Track Severe Weather on mobile